Time;durP1;ratioP1;P1;durP2;ratioP2;P2;SDS_P1;SDS_P2;PMS_P1;PMS_P2;Temp;Humidity;BMP_temperature;BMP_pressure;BME280_temperature;BME280_humidity;BME280_pressure;Samples;Min_cycle;Max_cycle;Signal;HPM_P1;HPM_P2
2023/02/28 00:00:49;;;;;;;9.47;3.20;;;;;;;;;;4989515;28;20105;-65
2023/02/28 00:03:15;;;;;;;7.10;3.00;;;;;;;;;;4991800;28;20536;-63
2023/02/28 00:05:41;;;;;;;8.57;3.37;;;;;;;;;;4998990;28;20021;-63
2023/02/28 00:08:06;;;;;;;8.35;3.03;;;;;;;;;;4988952;28;20113;-63
2023/02/28 00:10:31;;;;;;;7.32;3.03;;;;;;;;;;4989069;28;20477;-63
2023/02/28 00:12:59;;;;;;;8.97;3.07;;;;;;;;;;4990858;28;20030;-63
2023/02/28 00:15:25;;;;;;;8.75;3.47;;;;;;;;;;4989622;28;20049;-64
2023/02/28 00:17:50;;;;;;;8.37;3.07;;;;;;;;;;4988463;28;20121;-64
2023/02/28 00:20:15;;;;;;;7.33;3.20;;;;;;;;;;4987725;28;20026;-64
2023/02/28 00:22:42;;;;;;;9.30;3.10;;;;;;;;;;4988312;28;20045;-64
2023/02/28 00:25:12;;;;;;;7.68;3.08;;;;;;;;;;4986729;28;20067;-64
2023/02/28 00:27:39;;;;;;;8.65;2.92;;;;;;;;;;4989611;28;20060;-63
2023/02/28 00:30:05;;;;;;;7.10;3.00;;;;;;;;;;4989040;28;20423;-64
2023/02/28 00:32:30;;;;;;;7.38;3.10;;;;;;;;;;4989490;28;20030;-64
2023/02/28 00:34:55;;;;;;;8.63;3.75;;;;;;;;;;4989041;28;20385;-64
2023/02/28 00:37:20;;;;;;;10.35;3.50;;;;;;;;;;4994004;28;20026;-64
2023/02/28 00:39:46;;;;;;;10.07;3.40;;;;;;;;;;4992972;28;20030;-64
2023/02/28 00:42:11;;;;;;;8.88;3.15;;;;;;;;;;4989521;28;20030;-64
2023/02/28 00:44:36;;;;;;;7.57;3.30;;;;;;;;;;4988832;28;20026;-64
2023/02/28 00:47:01;;;;;;;8.48;3.88;;;;;;;;;;4991640;28;20091;-64
2023/02/28 00:49:26;;;;;;;8.10;3.33;;;;;;;;;;4993750;28;20025;-64
2023/02/28 00:51:52;;;;;;;7.57;3.23;;;;;;;;;;4997752;28;20045;-64
2023/02/28 00:54:17;;;;;;;8.52;3.15;;;;;;;;;;4995516;28;20457;-64
2023/02/28 00:56:42;;;;;;;9.27;3.35;;;;;;;;;;4987131;28;20486;-64
2023/02/28 00:59:08;;;;;;;8.83;3.30;;;;;;;;;;4987098;28;20022;-65
2023/02/28 01:01:33;;;;;;;9.65;3.30;;;;;;;;;;4997096;28;20037;-63
2023/02/28 01:03:58;;;;;;;9.32;3.33;;;;;;;;;;5004228;28;20037;-64
2023/02/28 01:06:24;;;;;;;8.55;2.95;;;;;;;;;;5000975;28;20033;-63
2023/02/28 01:08:49;;;;;;;8.87;3.70;;;;;;;;;;4994330;28;20041;-64
2023/02/28 01:11:15;;;;;;;10.27;3.58;;;;;;;;;;4992035;28;20436;-64
2023/02/28 01:13:40;;;;;;;10.45;3.72;;;;;;;;;;4986649;28;20632;-64
2023/02/28 01:16:06;;;;;;;10.55;3.75;;;;;;;;;;4987924;28;20076;-64
2023/02/28 01:18:31;;;;;;;7.50;3.22;;;;;;;;;;4994750;28;20485;-64
2023/02/28 01:20:56;;;;;;;9.70;3.30;;;;;;;;;;4994510;28;20113;-64
2023/02/28 01:23:23;;;;;;;7.95;3.25;;;;;;;;;;4989333;28;20030;-64
2023/02/28 01:25:48;;;;;;;11.35;3.45;;;;;;;;;;4988469;28;20073;-63
2023/02/28 01:28:13;;;;;;;10.05;3.90;;;;;;;;;;4989157;28;20089;-64
2023/02/28 01:30:39;;;;;;;9.50;3.72;;;;;;;;;;4987459;28;20504;-63
2023/02/28 01:33:04;;;;;;;9.17;3.80;;;;;;;;;;4996080;28;20031;-63
2023/02/28 01:35:31;;;;;;;8.75;4.00;;;;;;;;;;4993568;28;20024;-62
2023/02/28 01:37:57;;;;;;;8.90;3.70;;;;;;;;;;4995319;28;20034;-62
2023/02/28 01:40:22;;;;;;;10.40;3.90;;;;;;;;;;4989284;28;20380;-63
2023/02/28 01:42:47;;;;;;;9.20;3.60;;;;;;;;;;4996219;28;20141;-63
2023/02/28 01:45:21;;;;;;;12.45;4.13;;;;;;;;;;4989280;28;20037;-62
2023/02/28 01:47:47;;;;;;;9.88;3.55;;;;;;;;;;4991635;28;20031;-63
2023/02/28 01:50:14;;;;;;;9.52;4.00;;;;;;;;;;4991384;28;20033;-63
2023/02/28 01:52:39;;;;;;;;;;;;;;;;;;4991625;28;20080;-63
2023/02/28 01:55:06;;;;;;;9.75;3.08;;;;;;;;;;4998735;28;19918;-62
2023/02/28 01:57:37;;;;;;;10.20;3.50;;;;;;;;;;5008444;28;20497;-63
2023/02/28 02:00:04;;;;;;;10.30;3.90;;;;;;;;;;4991214;28;20034;-63
2023/02/28 02:02:30;;;;;;;10.52;3.88;;;;;;;;;;4991761;28;20025;-63
2023/02/28 02:04:55;;;;;;;11.40;4.00;;;;;;;;;;4993030;28;20022;-62
2023/02/28 02:07:21;;;;;;;10.02;3.58;;;;;;;;;;4992190;28;20548;-62
2023/02/28 02:09:46;;;;;;;10.00;3.85;;;;;;;;;;4991422;28;20026;-63
2023/02/28 02:12:28;;;;;;;8.37;4.13;;;;;;;;;;4989450;28;20030;-63
2023/02/28 02:15:01;;;;;;;8.30;3.88;;;;;;;;;;4989960;28;20528;-63
2023/02/28 02:17:26;;;;;;;;;;;;;;;;;;4992784;28;20393;-64
2023/02/28 02:20:09;;;;;;;8.50;3.15;;;;;;;;;;4991484;28;19910;-62
2023/02/28 02:22:53;;;;;;;9.75;4.20;;;;;;;;;;4991755;28;20451;-62
2023/02/28 02:25:21;;;;;;;11.00;3.90;;;;;;;;;;4991235;28;20627;-62
2023/02/28 02:27:57;;;;;;;12.23;4.50;;;;;;;;;;4991219;28;20445;-62
2023/02/28 02:30:40;;;;;;;13.57;4.40;;;;;;;;;;4998858;28;20030;-62
2023/02/28 02:33:25;;;;;;;9.85;3.55;;;;;;;;;;4991992;28;20034;-63
2023/02/28 02:35:54;;;;;;;9.15;3.65;;;;;;;;;;4980516;28;20018;-64
2023/02/28 02:38:19;;;;;;;10.80;3.72;;;;;;;;;;4990122;28;20038;-62
2023/02/28 02:40:55;;;;;;;10.10;3.90;;;;;;;;;;4991327;28;20064;-62
2023/02/28 02:43:24;;;;;;;9.23;4.13;;;;;;;;;;4990906;28;20026;-63
2023/02/28 02:45:52;;;;;;;10.63;3.75;;;;;;;;;;4991982;28;20111;-63
2023/02/28 02:48:19;;;;;;;10.60;4.03;;;;;;;;;;4990554;28;20029;-64
2023/02/28 02:50:48;;;;;;;11.25;4.10;;;;;;;;;;4991258;28;20019;-63
2023/02/28 02:53:17;;;;;;;12.25;4.28;;;;;;;;;;4990420;28;20438;-63
2023/02/28 02:55:44;;;;;;;9.68;4.20;;;;;;;;;;4989527;28;20033;-61
2023/02/28 02:58:13;;;;;;;10.43;4.20;;;;;;;;;;4990359;28;20030;-64
2023/02/28 03:00:43;;;;;;;7.78;3.72;;;;;;;;;;4988653;28;20109;-63
2023/02/28 03:03:09;;;;;;;12.63;4.50;;;;;;;;;;4987351;28;20113;-63
2023/02/28 03:05:39;;;;;;;11.90;4.45;;;;;;;;;;4995667;28;20029;-63
2023/02/28 03:08:05;;;;;;;11.25;4.18;;;;;;;;;;4992738;28;20498;-62
2023/02/28 03:10:38;;;;;;;11.07;4.20;;;;;;;;;;4989468;28;20026;-62
2023/02/28 03:13:12;;;;;;;12.07;4.72;;;;;;;;;;4990299;28;20019;-62
2023/02/28 03:15:45;;;;;;;9.05;3.97;;;;;;;;;;4985027;28;20022;-62
2023/02/28 03:18:14;;;;;;;10.25;4.40;;;;;;;;;;4997310;28;20048;-64
2023/02/28 03:20:54;;;;;;;12.07;4.22;;;;;;;;;;4991095;28;20461;-63
2023/02/28 03:23:21;;;;;;;9.65;3.95;;;;;;;;;;4990322;28;20049;-63
2023/02/28 03:25:52;;;;;;;13.73;5.13;;;;;;;;;;5000394;28;20402;-62
2023/02/28 03:28:44;;;;;;;12.38;4.70;;;;;;;;;;4989512;28;20030;-63
2023/02/28 03:31:17;;;;;;;12.07;4.10;;;;;;;;;;4990684;28;20034;-63
2023/02/28 03:33:45;;;;;;;12.63;4.05;;;;;;;;;;5000742;28;20090;-63
2023/02/28 03:36:15;;;;;;;12.93;5.20;;;;;;;;;;4990119;28;20374;-63
2023/02/28 03:38:44;;;;;;;10.88;4.28;;;;;;;;;;4988881;28;20023;-63
2023/02/28 03:41:14;;;;;;;12.40;4.93;;;;;;;;;;4986082;28;20037;-63
2023/02/28 03:43:41;;;;;;;10.18;4.72;;;;;;;;;;4988866;28;20106;-64
2023/02/28 03:46:09;;;;;;;12.52;5.00;;;;;;;;;;4991260;28;20026;-63
2023/02/28 03:48:43;;;;;;;12.13;4.57;;;;;;;;;;4990330;28;20029;-63
2023/02/28 03:51:10;;;;;;;11.55;4.75;;;;;;;;;;4987422;28;20093;-63
2023/02/28 03:53:55;;;;;;;10.15;4.88;;;;;;;;;;4989264;28;20481;-63
2023/02/28 03:56:24;;;;;;;12.25;4.80;;;;;;;;;;4988408;28;20405;-63
2023/02/28 03:59:06;;;;;;;11.10;4.70;;;;;;;;;;4988681;28;20041;-63
2023/02/28 04:01:35;;;;;;;11.57;4.60;;;;;;;;;;4986865;28;20433;-61
2023/02/28 04:04:00;;;;;;;13.40;5.15;;;;;;;;;;4988039;28;20050;-62
2023/02/28 04:06:26;;;;;;;10.32;4.35;;;;;;;;;;4991584;28;20057;-62
2023/02/28 04:08:52;;;;;;;12.60;5.32;;;;;;;;;;4996148;28;20104;-63
2023/02/28 04:11:23;;;;;;;12.93;4.50;;;;;;;;;;4993926;28;20031;-62
2023/02/28 04:13:48;;;;;;;11.00;4.60;;;;;;;;;;4995084;28;20075;-62
2023/02/28 04:16:13;;;;;;;10.20;4.87;;;;;;;;;;4989458;28;20439;-63
2023/02/28 04:18:39;;;;;;;12.23;4.85;;;;;;;;;;4995991;28;20042;-63
2023/02/28 04:21:05;;;;;;;11.07;5.05;;;;;;;;;;4994154;28;20025;-64
2023/02/28 04:23:30;;;;;;;10.07;4.50;;;;;;;;;;4986064;28;20085;-62
2023/02/28 04:25:55;;;;;;;13.65;4.63;;;;;;;;;;5005333;28;20058;-62
2023/02/28 04:28:20;;;;;;;13.07;4.57;;;;;;;;;;4990499;28;20125;-61
2023/02/28 04:30:45;;;;;;;11.43;4.93;;;;;;;;;;4988448;28;20037;-62
2023/02/28 04:33:11;;;;;;;12.68;5.22;;;;;;;;;;4998275;28;20507;-62
2023/02/28 04:35:36;;;;;;;12.90;5.45;;;;;;;;;;4985354;28;20030;-62
2023/02/28 04:38:01;;;;;;;11.98;4.90;;;;;;;;;;4986585;28;20094;-63
2023/02/28 04:40:26;;;;;;;13.48;5.07;;;;;;;;;;4991434;28;20038;-62
2023/02/28 04:42:52;;;;;;;12.68;5.13;;;;;;;;;;4988820;28;20382;-62
2023/02/28 04:45:17;;;;;;;11.07;5.03;;;;;;;;;;4993335;28;20085;-62
2023/02/28 04:47:42;;;;;;;12.47;5.23;;;;;;;;;;4990557;28;20053;-63
2023/02/28 04:50:08;;;;;;;12.73;5.68;;;;;;;;;;4991149;28;20053;-62
2023/02/28 04:52:33;;;;;;;15.20;5.68;;;;;;;;;;4988401;28;20108;-62
2023/02/28 04:54:58;;;;;;;12.23;4.93;;;;;;;;;;4992501;28;20137;-62
2023/02/28 04:57:24;;;;;;;14.38;5.43;;;;;;;;;;4990858;28;20057;-62
2023/02/28 04:59:49;;;;;;;12.55;4.97;;;;;;;;;;4989654;28;20041;-62
2023/02/28 05:02:14;;;;;;;13.75;6.22;;;;;;;;;;4989627;28;20453;-62
2023/02/28 05:04:39;;;;;;;13.30;5.50;;;;;;;;;;4988613;28;20022;-63
2023/02/28 05:07:04;;;;;;;13.77;5.82;;;;;;;;;;4991529;28;20477;-62
2023/02/28 05:09:29;;;;;;;13.45;5.05;;;;;;;;;;4990643;28;20034;-63
2023/02/28 05:11:55;;;;;;;16.10;5.88;;;;;;;;;;4989648;28;20025;-62
2023/02/28 05:14:20;;;;;;;12.52;5.82;;;;;;;;;;4988830;28;20074;-62
2023/02/28 05:16:46;;;;;;;13.47;5.20;;;;;;;;;;4985777;28;20513;-63
2023/02/28 05:19:11;;;;;;;16.25;6.05;;;;;;;;;;4990122;28;20030;-62
2023/02/28 05:21:37;;;;;;;12.20;5.97;;;;;;;;;;4993317;28;20106;-61
2023/02/28 05:24:04;;;;;;;14.43;5.70;;;;;;;;;;5001457;28;20469;-62
2023/02/28 05:26:29;;;;;;;13.60;5.45;;;;;;;;;;4995222;28;20493;-62
2023/02/28 05:28:55;;;;;;;15.23;5.93;;;;;;;;;;4996720;28;20031;-63
2023/02/28 05:31:20;;;;;;;12.35;5.70;;;;;;;;;;4990286;28;20441;-63
2023/02/28 05:33:46;;;;;;;12.33;5.53;;;;;;;;;;4987130;28;20030;-62
2023/02/28 05:36:11;;;;;;;17.08;6.25;;;;;;;;;;4985624;28;20029;-63
2023/02/28 05:38:36;;;;;;;14.27;6.10;;;;;;;;;;4991662;28;20026;-63
2023/02/28 05:41:04;;;;;;;13.90;6.05;;;;;;;;;;4989563;28;20532;-63
2023/02/28 05:43:29;;;;;;;12.90;5.47;;;;;;;;;;5003671;28;20556;-62
2023/02/28 05:45:55;;;;;;;12.60;5.90;;;;;;;;;;4989376;28;20034;-67
2023/02/28 05:48:20;;;;;;;13.50;5.43;;;;;;;;;;4990185;28;20067;-63
2023/02/28 05:50:45;;;;;;;13.90;6.07;;;;;;;;;;4995094;28;20026;-63
2023/02/28 05:53:11;;;;;;;13.48;5.63;;;;;;;;;;4997145;28;20029;-64
2023/02/28 05:55:37;;;;;;;12.83;5.43;;;;;;;;;;4997605;28;20306;-64
2023/02/28 05:58:02;;;;;;;14.98;5.82;;;;;;;;;;4995459;28;20888;-62
2023/02/28 06:00:27;;;;;;;15.20;6.05;;;;;;;;;;4997456;28;20046;-63
2023/02/28 06:02:56;;;;;;;14.20;6.27;;;;;;;;;;4983558;28;20026;-62
2023/02/28 06:05:21;;;;;;;13.77;5.30;;;;;;;;;;4989915;28;20023;-63
2023/02/28 06:07:46;;;;;;;13.47;5.97;;;;;;;;;;4989104;28;20201;-63
2023/02/28 06:10:12;;;;;;;19.90;6.70;;;;;;;;;;4991935;28;20023;-63
2023/02/28 06:12:40;;;;;;;14.45;6.00;;;;;;;;;;4991402;28;20069;-64
2023/02/28 06:15:05;;;;;;;14.57;6.00;;;;;;;;;;4992065;28;20022;-62
2023/02/28 06:17:30;;;;;;;16.45;6.03;;;;;;;;;;4995810;28;20094;-63
2023/02/28 06:19:55;;;;;;;15.33;6.10;;;;;;;;;;5008821;28;20022;-63
2023/02/28 06:22:20;;;;;;;14.50;6.60;;;;;;;;;;5001302;28;20038;-63
2023/02/28 06:24:46;;;;;;;15.55;6.60;;;;;;;;;;4999082;28;20037;-63
2023/02/28 06:27:11;;;;;;;16.67;6.70;;;;;;;;;;4993748;28;20110;-64
2023/02/28 06:29:39;;;;;;;18.70;7.00;;;;;;;;;;4992487;28;20371;-64
2023/02/28 06:32:04;;;;;;;12.70;5.75;;;;;;;;;;4992484;28;20591;-63
2023/02/28 06:34:30;;;;;;;16.70;6.57;;;;;;;;;;4990894;28;20113;-63
2023/02/28 06:36:55;;;;;;;13.98;5.60;;;;;;;;;;4993492;28;20014;-63
2023/02/28 06:39:21;;;;;;;16.40;6.50;;;;;;;;;;4993704;28;20022;-63
2023/02/28 06:41:47;;;;;;;16.55;6.10;;;;;;;;;;4992366;28;20088;-63
2023/02/28 06:44:13;;;;;;;15.85;6.40;;;;;;;;;;4992528;28;20112;-63
2023/02/28 06:46:40;;;;;;;15.23;6.13;;;;;;;;;;4992919;28;20035;-63
2023/02/28 06:49:08;;;;;;;18.10;8.05;;;;;;;;;;4993326;28;20109;-63
2023/02/28 06:51:33;;;;;;;15.98;7.35;;;;;;;;;;4993595;28;20540;-63
2023/02/28 06:53:58;;;;;;;19.30;7.97;;;;;;;;;;4991688;28;20038;-63
2023/02/28 06:56:24;;;;;;;16.08;7.50;;;;;;;;;;4993706;28;20037;-63
2023/02/28 06:58:49;;;;;;;17.60;7.17;;;;;;;;;;4993960;28;20023;-63
2023/02/28 07:01:14;;;;;;;17.80;7.30;;;;;;;;;;4993225;28;20397;-63
2023/02/28 07:03:40;;;;;;;16.20;6.87;;;;;;;;;;4992689;28;20403;-63
2023/02/28 07:06:05;;;;;;;17.38;6.95;;;;;;;;;;4993977;28;20398;-64
2023/02/28 07:08:31;;;;;;;16.80;6.33;;;;;;;;;;4994196;28;20030;-63
2023/02/28 07:10:56;;;;;;;14.38;6.30;;;;;;;;;;4995298;28;20026;-64
2023/02/28 07:13:22;;;;;;;14.40;6.00;;;;;;;;;;4992722;28;20014;-63
2023/02/28 07:15:57;;;;;;;13.27;6.00;;;;;;;;;;4996796;28;20068;-62
2023/02/28 07:18:22;;;;;;;14.43;6.05;;;;;;;;;;4994173;28;20548;-63
2023/02/28 07:20:47;;;;;;;12.27;5.35;;;;;;;;;;4998062;28;20129;-62
2023/02/28 07:23:13;;;;;;;13.07;5.80;;;;;;;;;;4992042;28;20390;-64
2023/02/28 07:25:39;;;;;;;11.65;5.03;;;;;;;;;;4987408;28;20018;-62
2023/02/28 07:28:04;;;;;;;13.27;5.65;;;;;;;;;;4990666;28;20150;-63
2023/02/28 07:30:29;;;;;;;14.43;5.90;;;;;;;;;;4991348;28;20054;-63
2023/02/28 07:32:55;;;;;;;15.73;5.88;;;;;;;;;;5004577;28;20022;-63
2023/02/28 07:35:21;;;;;;;14.73;5.93;;;;;;;;;;5000044;28;20034;-63
2023/02/28 07:37:46;;;;;;;15.00;6.47;;;;;;;;;;5005857;28;20026;-63
2023/02/28 07:40:12;;;;;;;16.08;6.45;;;;;;;;;;5007609;28;20033;-64
2023/02/28 07:42:37;;;;;;;14.20;6.10;;;;;;;;;;4996163;28;20025;-63
2023/02/28 07:45:03;;;;;;;17.33;6.75;;;;;;;;;;4991387;28;20022;-64
2023/02/28 07:47:29;;;;;;;15.85;6.18;;;;;;;;;;4994972;28;20134;-63
2023/02/28 07:49:55;;;;;;;13.60;5.93;;;;;;;;;;4985651;28;20038;-63
2023/02/28 07:52:20;;;;;;;18.73;6.40;;;;;;;;;;4988911;28;20018;-63
2023/02/28 07:54:45;;;;;;;16.20;6.25;;;;;;;;;;5003953;28;20022;-63
2023/02/28 07:57:10;;;;;;;14.98;5.88;;;;;;;;;;4988919;28;20655;-63
2023/02/28 07:59:35;;;;;;;16.10;6.72;;;;;;;;;;5011791;28;20030;-64
2023/02/28 08:02:00;;;;;;;15.07;6.33;;;;;;;;;;5011869;28;20054;-63
2023/02/28 08:04:25;;;;;;;17.17;6.10;;;;;;;;;;5004138;28;20098;-63
2023/02/28 08:06:52;;;;;;;18.30;6.63;;;;;;;;;;4990374;28;20054;-63
2023/02/28 08:09:17;;;;;;;16.05;6.43;;;;;;;;;;4991864;28;20711;-63
2023/02/28 08:11:43;;;;;;;17.30;6.82;;;;;;;;;;4992260;28;20018;-63
2023/02/28 08:14:08;;;;;;;17.42;6.32;;;;;;;;;;4991201;28;20459;-63
2023/02/28 08:16:33;;;;;;;15.67;6.43;;;;;;;;;;4990483;28;20026;-62
2023/02/28 08:18:58;;;;;;;16.73;6.43;;;;;;;;;;4991120;28;20027;-63
2023/02/28 08:21:23;;;;;;;16.37;7.37;;;;;;;;;;4991615;28;20390;-63
2023/02/28 08:23:49;;;;;;;18.13;6.30;;;;;;;;;;4990605;28;20486;-62
2023/02/28 08:26:16;;;;;;;14.25;6.25;;;;;;;;;;4991257;28;20149;-64
2023/02/28 08:28:41;;;;;;;18.55;6.80;;;;;;;;;;4989069;28;20030;-63
2023/02/28 08:31:10;;;;;;;15.90;6.90;;;;;;;;;;4972553;28;20065;-64
2023/02/28 08:33:36;;;;;;;15.13;6.40;;;;;;;;;;4971647;28;20023;-63
2023/02/28 08:36:01;;;;;;;16.38;6.35;;;;;;;;;;4988645;28;20033;-62
2023/02/28 08:38:26;;;;;;;16.83;7.00;;;;;;;;;;4991570;28;20018;-63
2023/02/28 08:40:59;;;;;;;19.15;6.90;;;;;;;;;;4991722;28;20022;-64
2023/02/28 08:43:24;;;;;;;15.40;6.97;;;;;;;;;;4989914;28;20022;-64
2023/02/28 08:45:51;;;;;;;17.80;6.82;;;;;;;;;;4990362;28;20100;-63
2023/02/28 08:48:16;;;;;;;17.27;6.78;;;;;;;;;;4990364;28;20089;-63
2023/02/28 08:50:41;;;;;;;14.68;6.35;;;;;;;;;;4991185;28;20026;-64
2023/02/28 08:53:06;;;;;;;16.92;6.53;;;;;;;;;;4990998;28;20501;-63
2023/02/28 08:55:31;;;;;;;16.50;6.38;;;;;;;;;;4989079;28;20072;-64
2023/02/28 08:57:58;;;;;;;15.05;6.35;;;;;;;;;;4991484;28;20034;-63
2023/02/28 09:00:23;;;;;;;14.18;6.15;;;;;;;;;;4988662;28;20010;-63
2023/02/28 09:02:48;;;;;;;15.93;6.40;;;;;;;;;;4988136;28;20116;-63
2023/02/28 09:05:13;;;;;;;13.50;5.80;;;;;;;;;;4990705;28;20449;-63
2023/02/28 09:07:38;;;;;;;15.02;6.15;;;;;;;;;;4991557;28;20456;-62
2023/02/28 09:10:04;;;;;;;15.23;6.43;;;;;;;;;;4991238;28;20371;-63
2023/02/28 09:12:32;;;;;;;13.50;5.95;;;;;;;;;;4990389;28;20027;-64
2023/02/28 09:14:57;;;;;;;14.02;5.93;;;;;;;;;;4990511;28;20046;-63
2023/02/28 09:17:22;;;;;;;14.07;5.80;;;;;;;;;;4982140;28;20043;-63
2023/02/28 09:19:48;;;;;;;12.35;5.20;;;;;;;;;;4990976;28;20026;-63
2023/02/28 09:22:14;;;;;;;13.93;5.95;;;;;;;;;;4990055;28;20413;-63
2023/02/28 09:24:39;;;;;;;10.23;5.20;;;;;;;;;;4990762;28;20025;-63
2023/02/28 09:27:04;;;;;;;11.87;5.17;;;;;;;;;;4991024;28;20019;-63
2023/02/28 09:29:29;;;;;;;11.97;5.40;;;;;;;;;;4989475;28;20036;-63
2023/02/28 09:31:55;;;;;;;12.70;5.55;;;;;;;;;;4989345;28;20460;-63
2023/02/28 09:34:21;;;;;;;12.48;5.03;;;;;;;;;;4989911;28;20038;-63
2023/02/28 09:36:46;;;;;;;12.95;5.30;;;;;;;;;;4990989;28;20112;-63
2023/02/28 09:39:12;;;;;;;16.03;5.37;;;;;;;;;;4990249;28;20037;-63
2023/02/28 09:41:46;;;;;;;13.45;5.15;;;;;;;;;;4989872;28;20478;-63
2023/02/28 09:44:15;;;;;;;11.20;4.60;;;;;;;;;;4989234;28;20500;-63
2023/02/28 09:46:42;;;;;;;11.48;4.47;;;;;;;;;;4990817;28;20027;-63
2023/02/28 09:49:11;;;;;;;10.65;4.95;;;;;;;;;;4989768;28;20552;-64
2023/02/28 09:51:45;;;;;;;11.65;5.32;;;;;;;;;;4986234;28;20023;-64
2023/02/28 09:54:18;;;;;;;12.63;4.88;;;;;;;;;;4989901;28;20028;-63
2023/02/28 09:56:44;;;;;;;15.20;6.10;;;;;;;;;;4990756;28;20105;-62
2023/02/28 09:59:09;;;;;;;14.15;5.55;;;;;;;;;;4990669;28;20114;-64
2023/02/28 10:01:49;;;;;;;12.32;4.97;;;;;;;;;;4989929;28;20105;-63
2023/02/28 10:04:33;;;;;;;11.25;4.45;;;;;;;;;;4988342;28;20022;-63
2023/02/28 10:07:01;;;;;;;12.70;5.10;;;;;;;;;;4991992;28;20019;-64
2023/02/28 10:09:30;;;;;;;12.93;5.00;;;;;;;;;;4994449;28;20018;-64
2023/02/28 10:11:59;;;;;;;10.63;4.53;;;;;;;;;;4993454;28;20035;-63
2023/02/28 10:14:25;;;;;;;13.50;4.82;;;;;;;;;;4992349;28;20113;-64
2023/02/28 10:17:06;;;;;;;11.65;4.90;;;;;;;;;;4994795;28;20014;-64
2023/02/28 10:19:35;;;;;;;13.93;5.28;;;;;;;;;;4994883;28;20026;-64
2023/02/28 10:22:03;;;;;;;12.13;5.30;;;;;;;;;;4994725;28;20088;-64
2023/02/28 10:24:36;;;;;;;16.05;5.40;;;;;;;;;;4992045;28;20053;-64
2023/02/28 10:27:06;;;;;;;11.75;5.28;;;;;;;;;;4992986;28;20105;-63
2023/02/28 10:29:32;;;;;;;13.45;5.20;;;;;;;;;;4993660;28;20490;-62
2023/02/28 10:32:00;;;;;;;12.20;5.05;;;;;;;;;;4986976;28;20035;-63
2023/02/28 10:34:25;;;;;;;12.88;5.32;;;;;;;;;;4991812;28;20027;-62
2023/02/28 10:36:51;;;;;;;13.35;5.57;;;;;;;;;;4994353;28;20040;-64
2023/02/28 10:39:33;;;;;;;12.38;5.10;;;;;;;;;;4994567;28;20478;-64
2023/02/28 10:41:58;;;;;;;11.52;5.00;;;;;;;;;;4994780;28;20090;-63
2023/02/28 10:44:24;;;;;;;12.75;5.00;;;;;;;;;;4992669;28;20040;-64
2023/02/28 10:46:50;;;;;;;11.95;5.05;;;;;;;;;;4988114;28;20093;-64
2023/02/28 10:49:22;;;;;;;11.73;4.82;;;;;;;;;;4991369;28;20050;-64
2023/02/28 10:51:49;;;;;;;13.63;5.78;;;;;;;;;;4993264;28;20022;-64
2023/02/28 10:54:31;;;;;;;11.20;5.35;;;;;;;;;;4992063;28;20029;-64
2023/02/28 10:57:06;;;;;;;11.73;5.20;;;;;;;;;;4993816;28;20497;-63
2023/02/28 10:59:32;;;;;;;11.20;5.18;;;;;;;;;;4989991;28;20590;-64
2023/02/28 11:01:57;;;;;;;10.37;4.90;;;;;;;;;;4985387;28;20034;-63
2023/02/28 11:04:22;;;;;;;12.40;5.43;;;;;;;;;;4991515;28;20485;-64
2023/02/28 11:06:47;;;;;;;11.80;5.28;;;;;;;;;;4993120;28;20080;-64
2023/02/28 11:09:29;;;;;;;12.60;5.60;;;;;;;;;;4993401;28;20030;-63
2023/02/28 11:11:54;;;;;;;12.02;5.72;;;;;;;;;;4993254;28;20030;-63
2023/02/28 11:14:21;;;;;;;11.17;5.17;;;;;;;;;;4990303;28;20020;-63
2023/02/28 11:16:47;;;;;;;12.40;5.28;;;;;;;;;;4992761;28;20029;-64
2023/02/28 11:19:19;;;;;;;10.00;5.30;;;;;;;;;;4992660;28;20386;-64
2023/02/28 11:21:51;;;;;;;10.50;5.13;;;;;;;;;;4992873;28;20073;-64
2023/02/28 11:24:22;;;;;;;12.00;4.95;;;;;;;;;;4991165;28;20510;-62
2023/02/28 11:26:48;;;;;;;12.02;5.07;;;;;;;;;;4992770;28;20390;-64
2023/02/28 11:29:21;;;;;;;12.43;5.00;;;;;;;;;;4991579;28;20030;-65
2023/02/28 11:32:08;;;;;;;12.75;4.75;;;;;;;;;;4992833;28;20023;-64
2023/02/28 11:34:33;;;;;;;11.80;4.88;;;;;;;;;;4982492;28;20490;-64
2023/02/28 11:36:59;;;;;;;14.87;4.73;;;;;;;;;;4991795;28;20030;-64
2023/02/28 11:39:25;;;;;;;13.32;5.18;;;;;;;;;;4992502;28;20058;-64
2023/02/28 11:42:07;;;;;;;10.60;5.00;;;;;;;;;;4993063;28;20136;-64
2023/02/28 11:44:41;;;;;;;9.60;5.10;;;;;;;;;;4991357;28;20073;-63
2023/02/28 11:47:12;;;;;;;11.75;5.20;;;;;;;;;;4991460;28;20026;-63
2023/02/28 11:49:45;;;;;;;10.45;4.95;;;;;;;;;;4977205;28;20053;-64
2023/02/28 11:52:29;;;;;;;11.05;4.70;;;;;;;;;;4992307;28;20021;-63
2023/02/28 11:55:13;;;;;;;11.88;4.80;;;;;;;;;;4991853;28;20113;-64
2023/02/28 11:57:51;;;;;;;9.77;4.35;;;;;;;;;;4984779;28;20029;-62
2023/02/28 12:00:32;;;;;;;12.48;5.15;;;;;;;;;;4992153;28;20514;-63
2023/02/28 12:03:12;;;;;;;11.18;5.05;;;;;;;;;;4992131;28;20434;-63
2023/02/28 12:05:49;;;;;;;10.15;4.53;;;;;;;;;;4985864;28;20026;-67
2023/02/28 12:08:31;;;;;;;11.82;5.20;;;;;;;;;;4983912;28;20092;-63
2023/02/28 12:11:03;;;;;;;11.25;4.50;;;;;;;;;;4992200;28;20097;-63
2023/02/28 12:13:45;;;;;;;12.93;5.43;;;;;;;;;;4991649;28;20019;-64
2023/02/28 12:16:20;;;;;;;13.80;5.85;;;;;;;;;;4990986;28;20030;-63
2023/02/28 12:18:52;;;;;;;11.20;5.18;;;;;;;;;;4991283;28;20026;-63
2023/02/28 12:21:25;;;;;;;11.50;4.80;;;;;;;;;;4990595;28;20050;-64
2023/02/28 12:23:59;;;;;;;9.52;4.60;;;;;;;;;;4990937;28;20462;-63
2023/02/28 12:26:44;;;;;;;12.70;4.90;;;;;;;;;;4988857;28;20018;-64
2023/02/28 12:29:16;;;;;;;11.70;5.03;;;;;;;;;;4987923;28;20034;-63
2023/02/28 12:31:45;;;;;;;11.40;4.70;;;;;;;;;;4989584;28;20490;-64
2023/02/28 12:34:13;;;;;;;11.63;5.18;;;;;;;;;;4989839;28;20034;-63
2023/02/28 12:36:39;;;;;;;11.68;5.05;;;;;;;;;;4987553;28;20057;-64
2023/02/28 12:39:10;;;;;;;11.63;5.32;;;;;;;;;;4991239;28;20029;-64
2023/02/28 12:41:43;;;;;;;12.55;5.40;;;;;;;;;;4991446;28;20630;-64
2023/02/28 12:44:21;;;;;;;10.93;5.07;;;;;;;;;;4990703;28;20022;-64
2023/02/28 12:46:48;;;;;;;12.88;5.55;;;;;;;;;;4990586;28;20023;-63
2023/02/28 12:49:19;;;;;;;11.02;4.82;;;;;;;;;;4991238;28;20036;-63
2023/02/28 12:51:45;;;;;;;11.32;5.60;;;;;;;;;;4991482;28;20114;-63
2023/02/28 12:54:15;;;;;;;9.38;5.10;;;;;;;;;;4991217;28;20027;-63
2023/02/28 12:56:41;;;;;;;13.30;5.30;;;;;;;;;;4989791;28;20022;-64
2023/02/28 12:59:21;;;;;;;10.10;4.83;;;;;;;;;;4990804;28;20057;-63
2023/02/28 13:02:05;;;;;;;11.68;5.10;;;;;;;;;;4982242;28;20022;-64
2023/02/28 13:04:36;;;;;;;11.93;5.47;;;;;;;;;;4989482;28;20046;-63
2023/02/28 13:07:17;;;;;;;12.48;5.90;;;;;;;;;;4991651;28;20026;-63
2023/02/28 13:09:51;;;;;;;10.45;5.20;;;;;;;;;;4980736;28;20030;-63
2023/02/28 13:12:16;;;;;;;13.35;5.70;;;;;;;;;;4991089;28;20084;-65
2023/02/28 13:14:42;;;;;;;11.97;5.23;;;;;;;;;;4990388;28;20023;-63
2023/02/28 13:17:08;;;;;;;13.45;5.43;;;;;;;;;;4991190;28;20037;-62
2023/02/28 13:19:35;;;;;;;13.07;5.97;;;;;;;;;;4989647;28;20031;-63
2023/02/28 13:22:00;;;;;;;13.40;6.05;;;;;;;;;;4986424;28;20089;-63
2023/02/28 13:24:44;;;;;;;12.52;6.20;;;;;;;;;;4989421;28;20022;-64
2023/02/28 13:27:09;;;;;;;13.43;6.22;;;;;;;;;;4991335;28;20023;-63
2023/02/28 13:29:35;;;;;;;14.55;5.97;;;;;;;;;;4991167;28;20038;-63
2023/02/28 13:32:07;;;;;;;12.70;6.03;;;;;;;;;;4991643;28;20022;-64
2023/02/28 13:34:33;;;;;;;13.95;6.57;;;;;;;;;;4990632;28;20429;-63
2023/02/28 13:37:17;;;;;;;14.07;6.43;;;;;;;;;;4989497;28;20022;-64
2023/02/28 13:39:42;;;;;;;14.48;6.13;;;;;;;;;;4985507;28;20018;-64
2023/02/28 13:42:22;;;;;;;16.65;6.85;;;;;;;;;;4992712;28;20022;-63
2023/02/28 13:45:03;;;;;;;13.50;6.18;;;;;;;;;;4994468;28;20029;-64
2023/02/28 13:47:28;;;;;;;13.40;5.88;;;;;;;;;;4995143;28;20018;-64
2023/02/28 13:49:54;;;;;;;13.83;6.13;;;;;;;;;;4993921;28;20156;-63
2023/02/28 13:52:20;;;;;;;16.85;6.60;;;;;;;;;;4993369;28;20454;-63
2023/02/28 13:54:55;;;;;;;16.60;7.03;;;;;;;;;;4992613;28;20030;-63
2023/02/28 13:57:39;;;;;;;12.65;5.95;;;;;;;;;;4993832;28;20030;-63
2023/02/28 14:00:05;;;;;;;13.02;6.35;;;;;;;;;;4993372;28;20018;-63
2023/02/28 14:02:49;;;;;;;14.77;6.30;;;;;;;;;;4994162;28;20029;-64
2023/02/28 14:05:19;;;;;;;13.60;6.78;;;;;;;;;;4992791;28;20030;-61
2023/02/28 14:07:53;;;;;;;14.55;6.75;;;;;;;;;;4994034;28;20069;-64
2023/02/28 14:10:32;;;;;;;14.82;6.85;;;;;;;;;;4991943;28;20034;-63
2023/02/28 14:13:12;;;;;;;15.57;6.93;;;;;;;;;;4994023;28;20383;-63
2023/02/28 14:15:56;;;;;;;12.75;6.20;;;;;;;;;;4992513;28;20073;-62
2023/02/28 14:18:34;;;;;;;14.65;7.00;;;;;;;;;;4990786;28;20362;-63
2023/02/28 14:21:10;;;;;;;14.35;6.82;;;;;;;;;;4990195;28;20026;-63
2023/02/28 14:23:47;;;;;;;13.68;6.00;;;;;;;;;;4985401;28;20115;-63
2023/02/28 14:26:28;;;;;;;18.33;6.93;;;;;;;;;;4986054;28;20037;-64
2023/02/28 14:29:16;;;;;;;14.48;6.45;;;;;;;;;;4986741;28;20156;-62
2023/02/28 14:31:57;;;;;;;13.88;6.43;;;;;;;;;;4977834;28;20045;-63
2023/02/28 14:34:22;;;;;;;14.48;6.32;;;;;;;;;;5003028;28;20014;-63
2023/02/28 14:36:48;;;;;;;16.35;6.88;;;;;;;;;;4990488;28;20033;-64
2023/02/28 14:39:19;;;;;;;13.00;6.00;;;;;;;;;;4996922;28;20026;-63
2023/02/28 14:41:45;;;;;;;16.23;7.13;;;;;;;;;;4990500;28;20038;-63